sensor_id;sensor_type;location;lat;lon;timestamp;temperature;humidity
51801;DHT22;37855;53.204;6.568;2023-02-01T00:02:02;6.40;69.40
51801;DHT22;37855;53.204;6.568;2023-02-01T00:04:34;6.40;69.40
51801;DHT22;37855;53.204;6.568;2023-02-01T00:07:01;6.40;69.30
51801;DHT22;37855;53.204;6.568;2023-02-01T00:09:27;6.40;69.10
51801;DHT22;37855;53.204;6.568;2023-02-01T00:11:52;6.40;68.90
51801;DHT22;37855;53.204;6.568;2023-02-01T00:14:31;6.40;68.90
51801;DHT22;37855;53.204;6.568;2023-02-01T00:17:05;6.40;68.90
51801;DHT22;37855;53.204;6.568;2023-02-01T00:19:34;6.40;68.90
51801;DHT22;37855;53.204;6.568;2023-02-01T00:22:02;6.40;69.00
51801;DHT22;37855;53.204;6.568;2023-02-01T00:24:28;6.40;68.80
51801;DHT22;37855;53.204;6.568;2023-02-01T00:26:54;6.40;68.90
51801;DHT22;37855;53.204;6.568;2023-02-01T00:29:20;6.40;68.90
51801;DHT22;37855;53.204;6.568;2023-02-01T00:31:46;6.40;69.00
51801;DHT22;37855;53.204;6.568;2023-02-01T00:34:13;6.40;68.90
51801;DHT22;37855;53.204;6.568;2023-02-01T00:36:43;6.40;68.60
51801;DHT22;37855;53.204;6.568;2023-02-01T00:39:09;6.40;68.80
51801;DHT22;37855;53.204;6.568;2023-02-01T00:41:35;6.40;68.60
51801;DHT22;37855;53.204;6.568;2023-02-01T00:44:01;6.40;68.50
51801;DHT22;37855;53.204;6.568;2023-02-01T00:46:27;6.40;68.60
51801;DHT22;37855;53.204;6.568;2023-02-01T00:48:53;6.40;68.50
51801;DHT22;37855;53.204;6.568;2023-02-01T00:51:23;6.40;68.60
51801;DHT22;37855;53.204;6.568;2023-02-01T00:53:49;6.50;68.30
51801;DHT22;37855;53.204;6.568;2023-02-01T00:56:15;6.40;68.50
51801;DHT22;37855;53.204;6.568;2023-02-01T00:58:43;6.40;68.50
51801;DHT22;37855;53.204;6.568;2023-02-01T01:01:27;6.50;68.50
51801;DHT22;37855;53.204;6.568;2023-02-01T01:03:57;6.40;68.40
51801;DHT22;37855;53.204;6.568;2023-02-01T01:06:29;6.50;68.20
51801;DHT22;37855;53.204;6.568;2023-02-01T01:08:56;6.50;68.20
51801;DHT22;37855;53.204;6.568;2023-02-01T01:11:25;6.50;68.30
51801;DHT22;37855;53.204;6.568;2023-02-01T01:13:53;6.50;68.20
51801;DHT22;37855;53.204;6.568;2023-02-01T01:16:19;6.50;68.30
51801;DHT22;37855;53.204;6.568;2023-02-01T01:18:46;6.50;68.40
51801;DHT22;37855;53.204;6.568;2023-02-01T01:21:13;6.50;68.50
51801;DHT22;37855;53.204;6.568;2023-02-01T01:23:39;6.50;68.70
51801;DHT22;37855;53.204;6.568;2023-02-01T01:26:14;6.50;68.70
51801;DHT22;37855;53.204;6.568;2023-02-01T01:28:40;6.50;68.60
51801;DHT22;37855;53.204;6.568;2023-02-01T01:31:10;6.50;68.60
51801;DHT22;37855;53.204;6.568;2023-02-01T01:33:36;6.60;68.60
51801;DHT22;37855;53.204;6.568;2023-02-01T01:36:06;6.60;68.70
51801;DHT22;37855;53.204;6.568;2023-02-01T01:38:35;6.50;68.80
51801;DHT22;37855;53.204;6.568;2023-02-01T01:41:01;6.50;68.90
51801;DHT22;37855;53.204;6.568;2023-02-01T01:43:50;6.50;69.10
51801;DHT22;37855;53.204;6.568;2023-02-01T01:46:18;6.50;69.00
51801;DHT22;37855;53.204;6.568;2023-02-01T01:49:15;6.50;69.30
51801;DHT22;37855;53.204;6.568;2023-02-01T01:51:51;6.50;69.50
51801;DHT22;37855;53.204;6.568;2023-02-01T01:56:50;6.50;70.30
51801;DHT22;37855;53.204;6.568;2023-02-01T01:59:17;6.50;70.70
51801;DHT22;37855;53.204;6.568;2023-02-01T02:01:46;6.50;70.80
51801;DHT22;37855;53.204;6.568;2023-02-01T02:04:32;6.50;71.30
51801;DHT22;37855;53.204;6.568;2023-02-01T02:07:06;6.50;71.20
51801;DHT22;37855;53.204;6.568;2023-02-01T02:09:34;6.40;71.70
51801;DHT22;37855;53.204;6.568;2023-02-01T02:12:03;6.40;71.80
51801;DHT22;37855;53.204;6.568;2023-02-01T02:14:38;6.40;71.80
51801;DHT22;37855;53.204;6.568;2023-02-01T02:23:28;6.30;72.40
51801;DHT22;37855;53.204;6.568;2023-02-01T02:26:10;6.30;72.20
51801;DHT22;37855;53.204;6.568;2023-02-01T02:45:38;6.10;73.40
51801;DHT22;37855;53.204;6.568;2023-02-01T02:56:49;6.20;73.40
51801;DHT22;37855;53.204;6.568;2023-02-01T02:59:35;6.20;73.20
51801;DHT22;37855;53.204;6.568;2023-02-01T03:02:20;6.20;73.00
51801;DHT22;37855;53.204;6.568;2023-02-01T03:05:05;6.20;73.10
51801;DHT22;37855;53.204;6.568;2023-02-01T03:13:28;6.20;72.70
51801;DHT22;37855;53.204;6.568;2023-02-01T03:18:57;6.30;72.30
51801;DHT22;37855;53.204;6.568;2023-02-01T03:24:23;6.30;71.50
51801;DHT22;37855;53.204;6.568;2023-02-01T03:27:03;6.40;71.50
51801;DHT22;37855;53.204;6.568;2023-02-01T03:29:52;6.40;71.40
51801;DHT22;37855;53.204;6.568;2023-02-01T03:32:20;6.30;71.50
51801;DHT22;37855;53.204;6.568;2023-02-01T03:34:47;6.30;71.30
51801;DHT22;37855;53.204;6.568;2023-02-01T03:37:27;6.40;71.20
51801;DHT22;37855;53.204;6.568;2023-02-01T03:40:00;6.40;71.10
51801;DHT22;37855;53.204;6.568;2023-02-01T03:42:32;6.40;70.90
51801;DHT22;37855;53.204;6.568;2023-02-01T03:45:11;6.40;71.20
51801;DHT22;37855;53.204;6.568;2023-02-01T03:47:45;6.40;71.20
51801;DHT22;37855;53.204;6.568;2023-02-01T03:50:18;6.40;71.30
51801;DHT22;37855;53.204;6.568;2023-02-01T03:52:55;6.40;71.30
51801;DHT22;37855;53.204;6.568;2023-02-01T03:55:23;6.40;71.40
51801;DHT22;37855;53.204;6.568;2023-02-01T03:57:58;6.40;71.70
51801;DHT22;37855;53.204;6.568;2023-02-01T04:00:26;6.40;71.80
51801;DHT22;37855;53.204;6.568;2023-02-01T04:02:53;6.40;72.10
51801;DHT22;37855;53.204;6.568;2023-02-01T04:05:19;6.40;72.60
51801;DHT22;37855;53.204;6.568;2023-02-01T04:07:45;6.40;72.60
51801;DHT22;37855;53.204;6.568;2023-02-01T04:10:11;6.30;72.90
51801;DHT22;37855;53.204;6.568;2023-02-01T04:12:37;6.30;73.00
51801;DHT22;37855;53.204;6.568;2023-02-01T04:15:04;6.30;72.90
51801;DHT22;37855;53.204;6.568;2023-02-01T04:17:30;6.30;72.80
51801;DHT22;37855;53.204;6.568;2023-02-01T04:19:56;6.30;72.90
51801;DHT22;37855;53.204;6.568;2023-02-01T04:22:22;6.30;72.80
51801;DHT22;37855;53.204;6.568;2023-02-01T04:24:47;6.30;72.60
51801;DHT22;37855;53.204;6.568;2023-02-01T04:27:13;6.30;72.70
51801;DHT22;37855;53.204;6.568;2023-02-01T04:29:39;6.40;72.40
51801;DHT22;37855;53.204;6.568;2023-02-01T04:32:05;6.40;72.30
51801;DHT22;37855;53.204;6.568;2023-02-01T04:34:33;6.40;72.30
51801;DHT22;37855;53.204;6.568;2023-02-01T04:37:01;6.40;72.30
51801;DHT22;37855;53.204;6.568;2023-02-01T04:39:28;6.40;71.80
51801;DHT22;37855;53.204;6.568;2023-02-01T04:41:53;6.40;71.90
51801;DHT22;37855;53.204;6.568;2023-02-01T04:44:19;6.40;71.90
51801;DHT22;37855;53.204;6.568;2023-02-01T04:46:46;6.40;72.20
51801;DHT22;37855;53.204;6.568;2023-02-01T04:49:13;6.40;72.10
51801;DHT22;37855;53.204;6.568;2023-02-01T04:51:39;6.30;72.30
51801;DHT22;37855;53.204;6.568;2023-02-01T04:54:05;6.30;72.30
51801;DHT22;37855;53.204;6.568;2023-02-01T04:56:31;6.30;72.30
51801;DHT22;37855;53.204;6.568;2023-02-01T04:58:57;6.30;72.20
51801;DHT22;37855;53.204;6.568;2023-02-01T05:01:23;6.30;72.30
51801;DHT22;37855;53.204;6.568;2023-02-01T05:03:50;6.30;72.30
51801;DHT22;37855;53.204;6.568;2023-02-01T05:06:16;6.30;72.10
51801;DHT22;37855;53.204;6.568;2023-02-01T05:08:41;6.30;72.20
51801;DHT22;37855;53.204;6.568;2023-02-01T05:11:10;6.30;71.90
51801;DHT22;37855;53.204;6.568;2023-02-01T05:13:55;6.30;72.10
51801;DHT22;37855;53.204;6.568;2023-02-01T05:16:21;6.30;72.20
51801;DHT22;37855;53.204;6.568;2023-02-01T05:18:48;6.30;72.10
51801;DHT22;37855;53.204;6.568;2023-02-01T05:21:13;6.30;72.20
51801;DHT22;37855;53.204;6.568;2023-02-01T05:23:42;6.20;72.30
51801;DHT22;37855;53.204;6.568;2023-02-01T05:26:26;6.20;72.30
51801;DHT22;37855;53.204;6.568;2023-02-01T05:28:54;6.30;72.30
51801;DHT22;37855;53.204;6.568;2023-02-01T05:31:20;6.30;72.00
51801;DHT22;37855;53.204;6.568;2023-02-01T05:33:47;6.30;72.10
51801;DHT22;37855;53.204;6.568;2023-02-01T05:36:12;6.30;72.10
51801;DHT22;37855;53.204;6.568;2023-02-01T05:38:38;6.30;72.10
51801;DHT22;37855;53.204;6.568;2023-02-01T05:41:04;6.40;72.20
51801;DHT22;37855;53.204;6.568;2023-02-01T05:43:30;6.40;72.00
51801;DHT22;37855;53.204;6.568;2023-02-01T05:45:55;6.40;72.00
51801;DHT22;37855;53.204;6.568;2023-02-01T05:48:21;6.40;71.80
51801;DHT22;37855;53.204;6.568;2023-02-01T05:50:46;6.40;71.70
51801;DHT22;37855;53.204;6.568;2023-02-01T05:53:13;6.50;71.40
51801;DHT22;37855;53.204;6.568;2023-02-01T05:55:38;6.50;71.50
51801;DHT22;37855;53.204;6.568;2023-02-01T05:58:05;6.50;71.60
51801;DHT22;37855;53.204;6.568;2023-02-01T06:00:31;6.50;71.70
51801;DHT22;37855;53.204;6.568;2023-02-01T06:02:56;6.50;72.00
51801;DHT22;37855;53.204;6.568;2023-02-01T06:05:22;6.40;72.10
51801;DHT22;37855;53.204;6.568;2023-02-01T06:07:48;6.50;71.90
51801;DHT22;37855;53.204;6.568;2023-02-01T06:10:16;6.50;71.90
51801;DHT22;37855;53.204;6.568;2023-02-01T06:12:52;6.40;71.90
51801;DHT22;37855;53.204;6.568;2023-02-01T06:15:34;6.40;72.10
51801;DHT22;37855;53.204;6.568;2023-02-01T06:18:04;6.40;72.30
51801;DHT22;37855;53.204;6.568;2023-02-01T06:20:36;6.40;72.10
51801;DHT22;37855;53.204;6.568;2023-02-01T06:23:01;6.40;72.20
51801;DHT22;37855;53.204;6.568;2023-02-01T06:25:30;6.40;72.10
51801;DHT22;37855;53.204;6.568;2023-02-01T06:28:00;6.40;72.20
51801;DHT22;37855;53.204;6.568;2023-02-01T06:30:25;6.40;72.30
51801;DHT22;37855;53.204;6.568;2023-02-01T06:32:54;6.40;72.30
51801;DHT22;37855;53.204;6.568;2023-02-01T06:35:20;6.30;72.50
51801;DHT22;37855;53.204;6.568;2023-02-01T06:37:46;6.40;72.40
51801;DHT22;37855;53.204;6.568;2023-02-01T06:40:11;6.30;72.50
51801;DHT22;37855;53.204;6.568;2023-02-01T06:42:38;6.40;72.50
51801;DHT22;37855;53.204;6.568;2023-02-01T06:45:04;6.40;72.40
51801;DHT22;37855;53.204;6.568;2023-02-01T06:47:32;6.40;72.40
51801;DHT22;37855;53.204;6.568;2023-02-01T06:49:58;6.40;72.30
51801;DHT22;37855;53.204;6.568;2023-02-01T06:52:23;6.40;72.20
51801;DHT22;37855;53.204;6.568;2023-02-01T06:54:52;6.40;72.50
51801;DHT22;37855;53.204;6.568;2023-02-01T06:57:17;6.40;72.60
51801;DHT22;37855;53.204;6.568;2023-02-01T06:59:43;6.40;72.60
51801;DHT22;37855;53.204;6.568;2023-02-01T07:02:14;6.40;72.50
51801;DHT22;37855;53.204;6.568;2023-02-01T07:04:39;6.40;72.50
51801;DHT22;37855;53.204;6.568;2023-02-01T07:07:05;6.40;72.70
51801;DHT22;37855;53.204;6.568;2023-02-01T07:09:30;6.50;72.60
51801;DHT22;37855;53.204;6.568;2023-02-01T07:11:59;6.40;72.50
51801;DHT22;37855;53.204;6.568;2023-02-01T07:14:25;6.40;72.50
51801;DHT22;37855;53.204;6.568;2023-02-01T07:16:53;6.40;72.60
51801;DHT22;37855;53.204;6.568;2023-02-01T07:19:19;6.40;72.50
51801;DHT22;37855;53.204;6.568;2023-02-01T07:21:47;6.40;72.60
51801;DHT22;37855;53.204;6.568;2023-02-01T07:24:13;6.40;72.60
51801;DHT22;37855;53.204;6.568;2023-02-01T07:26:40;6.40;72.90
51801;DHT22;37855;53.204;6.568;2023-02-01T07:29:05;6.40;72.80
51801;DHT22;37855;53.204;6.568;2023-02-01T07:31:33;6.40;72.80
51801;DHT22;37855;53.204;6.568;2023-02-01T07:33:59;6.40;72.80
51801;DHT22;37855;53.204;6.568;2023-02-01T07:36:29;6.50;72.60
51801;DHT22;37855;53.204;6.568;2023-02-01T07:38:58;6.40;72.70
51801;DHT22;37855;53.204;6.568;2023-02-01T07:41:24;6.40;72.80
51801;DHT22;37855;53.204;6.568;2023-02-01T07:43:53;6.50;72.80
51801;DHT22;37855;53.204;6.568;2023-02-01T07:46:21;6.50;72.90
51801;DHT22;37855;53.204;6.568;2023-02-01T07:48:47;6.50;72.90
51801;DHT22;37855;53.204;6.568;2023-02-01T07:51:16;6.50;73.00
51801;DHT22;37855;53.204;6.568;2023-02-01T07:53:44;6.50;72.90
51801;DHT22;37855;53.204;6.568;2023-02-01T07:56:13;6.50;72.80
51801;DHT22;37855;53.204;6.568;2023-02-01T07:58:40;6.50;72.80
51801;DHT22;37855;53.204;6.568;2023-02-01T08:01:17;6.60;72.80
51801;DHT22;37855;53.204;6.568;2023-02-01T08:03:53;6.60;72.80
51801;DHT22;37855;53.204;6.568;2023-02-01T08:06:19;6.50;72.80
51801;DHT22;37855;53.204;6.568;2023-02-01T08:08:52;6.60;72.70
51801;DHT22;37855;53.204;6.568;2023-02-01T08:16:30;6.60;72.50
51801;DHT22;37855;53.204;6.568;2023-02-01T08:18:57;6.50;72.50
51801;DHT22;37855;53.204;6.568;2023-02-01T08:21:27;6.60;72.50
51801;DHT22;37855;53.204;6.568;2023-02-01T08:24:05;6.60;72.40
51801;DHT22;37855;53.204;6.568;2023-02-01T08:26:31;6.60;72.40
51801;DHT22;37855;53.204;6.568;2023-02-01T08:28:58;6.50;72.40
51801;DHT22;37855;53.204;6.568;2023-02-01T08:31:27;6.60;72.50
51801;DHT22;37855;53.204;6.568;2023-02-01T08:34:02;6.60;72.40
51801;DHT22;37855;53.204;6.568;2023-02-01T08:36:31;6.60;72.50
51801;DHT22;37855;53.204;6.568;2023-02-01T08:38:57;6.60;72.50
51801;DHT22;37855;53.204;6.568;2023-02-01T08:41:25;6.60;72.60
51801;DHT22;37855;53.204;6.568;2023-02-01T08:43:51;6.60;72.60
51801;DHT22;37855;53.204;6.568;2023-02-01T08:46:24;6.60;72.70
51801;DHT22;37855;53.204;6.568;2023-02-01T08:48:50;6.70;72.60
51801;DHT22;37855;53.204;6.568;2023-02-01T08:51:29;6.60;72.70
51801;DHT22;37855;53.204;6.568;2023-02-01T08:53:57;6.60;72.80
51801;DHT22;37855;53.204;6.568;2023-02-01T08:56:26;6.60;73.00
51801;DHT22;37855;53.204;6.568;2023-02-01T08:58:51;6.60;72.90
51801;DHT22;37855;53.204;6.568;2023-02-01T09:01:17;6.70;72.60
51801;DHT22;37855;53.204;6.568;2023-02-01T09:03:44;6.70;72.60
51801;DHT22;37855;53.204;6.568;2023-02-01T09:06:14;6.60;72.50
51801;DHT22;37855;53.204;6.568;2023-02-01T09:08:41;6.70;72.60
51801;DHT22;37855;53.204;6.568;2023-02-01T09:11:11;6.70;72.30
51801;DHT22;37855;53.204;6.568;2023-02-01T09:13:38;6.70;72.40
51801;DHT22;37855;53.204;6.568;2023-02-01T09:16:07;6.60;72.40
51801;DHT22;37855;53.204;6.568;2023-02-01T09:21:19;6.60;72.50
51801;DHT22;37855;53.204;6.568;2023-02-01T09:23:45;6.70;72.30
51801;DHT22;37855;53.204;6.568;2023-02-01T09:26:16;6.70;72.40
51801;DHT22;37855;53.204;6.568;2023-02-01T09:28:42;6.70;72.20
51801;DHT22;37855;53.204;6.568;2023-02-01T09:31:14;6.70;72.30
51801;DHT22;37855;53.204;6.568;2023-02-01T09:33:40;6.70;72.20
51801;DHT22;37855;53.204;6.568;2023-02-01T09:36:06;6.70;72.20
51801;DHT22;37855;53.204;6.568;2023-02-01T09:38:32;6.60;72.20
51801;DHT22;37855;53.204;6.568;2023-02-01T09:40:59;6.70;72.30
51801;DHT22;37855;53.204;6.568;2023-02-01T09:44:34;6.70;72.30
51801;DHT22;37855;53.204;6.568;2023-02-01T09:46:29;6.70;72.30
51801;DHT22;37855;53.204;6.568;2023-02-01T09:49:00;6.70;72.30
51801;DHT22;37855;53.204;6.568;2023-02-01T09:51:48;6.70;72.00
51801;DHT22;37855;53.204;6.568;2023-02-01T09:54:20;6.70;72.20
51801;DHT22;37855;53.204;6.568;2023-02-01T09:59:39;6.70;72.30
51801;DHT22;37855;53.204;6.568;2023-02-01T10:02:19;6.70;72.30
51801;DHT22;37855;53.204;6.568;2023-02-01T10:04:47;6.70;72.40
51801;DHT22;37855;53.204;6.568;2023-02-01T10:09:57;6.60;73.10
51801;DHT22;37855;53.204;6.568;2023-02-01T10:18:43;6.50;74.60
51801;DHT22;37855;53.204;6.568;2023-02-01T10:26:35;6.40;74.80
51801;DHT22;37855;53.204;6.568;2023-02-01T10:29:04;6.50;74.10
51801;DHT22;37855;53.204;6.568;2023-02-01T10:31:36;6.50;74.20
51801;DHT22;37855;53.204;6.568;2023-02-01T10:34:22;6.50;74.10
51801;DHT22;37855;53.204;6.568;2023-02-01T10:36:57;6.50;74.10
51801;DHT22;37855;53.204;6.568;2023-02-01T10:39:31;6.50;74.10
51801;DHT22;37855;53.204;6.568;2023-02-01T10:41:56;6.60;73.90
51801;DHT22;37855;53.204;6.568;2023-02-01T10:44:26;6.60;73.20
51801;DHT22;37855;53.204;6.568;2023-02-01T10:46:53;6.70;73.10
51801;DHT22;37855;53.204;6.568;2023-02-01T10:49:41;6.70;73.30
51801;DHT22;37855;53.204;6.568;2023-02-01T10:52:20;6.70;72.90
51801;DHT22;37855;53.204;6.568;2023-02-01T10:54:51;6.80;72.70
51801;DHT22;37855;53.204;6.568;2023-02-01T10:57:24;6.90;72.30
51801;DHT22;37855;53.204;6.568;2023-02-01T10:59:54;6.90;72.60
51801;DHT22;37855;53.204;6.568;2023-02-01T11:02:30;6.90;72.40
51801;DHT22;37855;53.204;6.568;2023-02-01T11:05:07;6.90;72.40
51801;DHT22;37855;53.204;6.568;2023-02-01T11:07:54;7.00;72.90
51801;DHT22;37855;53.204;6.568;2023-02-01T11:10:41;6.90;73.20
51801;DHT22;37855;53.204;6.568;2023-02-01T11:13:18;7.00;73.90
51801;DHT22;37855;53.204;6.568;2023-02-01T11:15:46;6.80;74.60
51801;DHT22;37855;53.204;6.568;2023-02-01T11:18:18;6.80;74.80
51801;DHT22;37855;53.204;6.568;2023-02-01T11:20:46;6.80;74.70
51801;DHT22;37855;53.204;6.568;2023-02-01T11:23:22;6.80;74.90
51801;DHT22;37855;53.204;6.568;2023-02-01T11:25:56;6.80;74.90
51801;DHT22;37855;53.204;6.568;2023-02-01T11:28:33;6.80;74.90
51801;DHT22;37855;53.204;6.568;2023-02-01T11:31:02;6.70;75.50
51801;DHT22;37855;53.204;6.568;2023-02-01T11:33:36;6.60;76.00
51801;DHT22;37855;53.204;6.568;2023-02-01T11:36:41;6.60;76.30
51801;DHT22;37855;53.204;6.568;2023-02-01T11:44:36;6.80;75.10
51801;DHT22;37855;53.204;6.568;2023-02-01T11:47:30;6.80;75.20
51801;DHT22;37855;53.204;6.568;2023-02-01T11:50:00;6.90;75.20
51801;DHT22;37855;53.204;6.568;2023-02-01T11:52:32;6.90;75.50
51801;DHT22;37855;53.204;6.568;2023-02-01T12:01:03;7.00;75.00
51801;DHT22;37855;53.204;6.568;2023-02-01T12:06:55;6.30;72.80
51801;DHT22;37855;53.204;6.568;2023-02-01T12:09:52;6.10;73.90
51801;DHT22;37855;53.204;6.568;2023-02-01T12:12:22;6.00;75.00
51801;DHT22;37855;53.204;6.568;2023-02-01T12:37:04;7.40;73.30
51801;DHT22;37855;53.204;6.568;2023-02-01T12:39:54;7.50;73.10
51801;DHT22;37855;53.204;6.568;2023-02-01T12:42:37;7.60;73.10
51801;DHT22;37855;53.204;6.568;2023-02-01T12:51:07;7.60;71.70
51801;DHT22;37855;53.204;6.568;2023-02-01T12:53:43;7.60;71.80
51801;DHT22;37855;53.204;6.568;2023-02-01T12:56:28;7.50;71.90
51801;DHT22;37855;53.204;6.568;2023-02-01T12:59:01;7.50;71.90
51801;DHT22;37855;53.204;6.568;2023-02-01T13:01:43;7.50;72.40
51801;DHT22;37855;53.204;6.568;2023-02-01T13:04:25;7.60;72.60
51801;DHT22;37855;53.204;6.568;2023-02-01T13:06:57;7.50;72.80
51801;DHT22;37855;53.204;6.568;2023-02-01T13:12:23;7.50;72.60
51801;DHT22;37855;53.204;6.568;2023-02-01T13:14:58;7.60;72.50
51801;DHT22;37855;53.204;6.568;2023-02-01T13:17:28;7.60;72.20
51801;DHT22;37855;53.204;6.568;2023-02-01T13:20:21;7.60;71.70
51801;DHT22;37855;53.204;6.568;2023-02-01T13:22:57;7.60;71.60
51801;DHT22;37855;53.204;6.568;2023-02-01T13:27:53;7.70;71.30
51801;DHT22;37855;53.204;6.568;2023-02-01T13:30:24;7.70;71.40
51801;DHT22;37855;53.204;6.568;2023-02-01T13:41:30;7.80;71.30
51801;DHT22;37855;53.204;6.568;2023-02-01T13:44:03;7.70;71.40
51801;DHT22;37855;53.204;6.568;2023-02-01T13:46:41;7.80;71.20
51801;DHT22;37855;53.204;6.568;2023-02-01T13:49:23;7.70;71.00
51801;DHT22;37855;53.204;6.568;2023-02-01T13:51:56;7.80;71.10
51801;DHT22;37855;53.204;6.568;2023-02-01T13:56:52;7.70;71.80
51801;DHT22;37855;53.204;6.568;2023-02-01T14:10:57;7.60;71.90
51801;DHT22;37855;53.204;6.568;2023-02-01T14:13:35;7.70;71.70
51801;DHT22;37855;53.204;6.568;2023-02-01T14:21:29;7.60;71.40
51801;DHT22;37855;53.204;6.568;2023-02-01T14:24:12;7.60;71.70
51801;DHT22;37855;53.204;6.568;2023-02-01T14:34:25;7.60;71.30
51801;DHT22;37855;53.204;6.568;2023-02-01T14:37:09;7.60;71.90
51801;DHT22;37855;53.204;6.568;2023-02-01T15:01:04;7.50;71.80
51801;DHT22;37855;53.204;6.568;2023-02-01T15:06:30;7.40;72.00
51801;DHT22;37855;53.204;6.568;2023-02-01T15:09:23;7.30;72.00
51801;DHT22;37855;53.204;6.568;2023-02-01T15:14:25;7.40;71.70
51801;DHT22;37855;53.204;6.568;2023-02-01T15:16:51;7.30;71.50
51801;DHT22;37855;53.204;6.568;2023-02-01T15:19:25;7.30;71.80
51801;DHT22;37855;53.204;6.568;2023-02-01T15:21:54;7.40;71.50
51801;DHT22;37855;53.204;6.568;2023-02-01T15:24:31;7.30;71.60
51801;DHT22;37855;53.204;6.568;2023-02-01T15:27:04;7.30;71.80
51801;DHT22;37855;53.204;6.568;2023-02-01T15:29:30;7.30;71.60
51801;DHT22;37855;53.204;6.568;2023-02-01T15:31:58;7.40;71.80
51801;DHT22;37855;53.204;6.568;2023-02-01T15:34:45;7.40;71.70
51801;DHT22;37855;53.204;6.568;2023-02-01T15:37:13;7.40;71.80
51801;DHT22;37855;53.204;6.568;2023-02-01T15:40:02;7.40;71.50
51801;DHT22;37855;53.204;6.568;2023-02-01T15:42:29;7.40;71.20
51801;DHT22;37855;53.204;6.568;2023-02-01T15:44:55;7.40;71.50
51801;DHT22;37855;53.204;6.568;2023-02-01T15:47:26;7.40;71.60
51801;DHT22;37855;53.204;6.568;2023-02-01T15:49:56;7.40;71.40
51801;DHT22;37855;53.204;6.568;2023-02-01T15:52:40;7.30;71.50
51801;DHT22;37855;53.204;6.568;2023-02-01T15:55:22;7.30;71.60
51801;DHT22;37855;53.204;6.568;2023-02-01T15:57:49;7.30;71.80
51801;DHT22;37855;53.204;6.568;2023-02-01T16:03:05;7.20;71.90
51801;DHT22;37855;53.204;6.568;2023-02-01T16:10:44;7.00;72.00
51801;DHT22;37855;53.204;6.568;2023-02-01T16:13:11;7.00;72.00
51801;DHT22;37855;53.204;6.568;2023-02-01T16:15:37;7.00;72.00
51801;DHT22;37855;53.204;6.568;2023-02-01T16:18:04;6.90;71.30
51801;DHT22;37855;53.204;6.568;2023-02-01T16:20:30;6.90;71.20
51801;DHT22;37855;53.204;6.568;2023-02-01T16:22:56;6.90;71.00
51801;DHT22;37855;53.204;6.568;2023-02-01T16:25:21;6.90;70.90
51801;DHT22;37855;53.204;6.568;2023-02-01T16:27:48;6.90;70.80
51801;DHT22;37855;53.204;6.568;2023-02-01T16:30:14;6.90;70.90
51801;DHT22;37855;53.204;6.568;2023-02-01T16:32:40;6.90;70.90
51801;DHT22;37855;53.204;6.568;2023-02-01T16:37:42;6.80;71.20
51801;DHT22;37855;53.204;6.568;2023-02-01T16:40:16;6.70;71.30
51801;DHT22;37855;53.204;6.568;2023-02-01T16:42:42;6.80;71.20
51801;DHT22;37855;53.204;6.568;2023-02-01T16:45:09;6.70;71.20
51801;DHT22;37855;53.204;6.568;2023-02-01T16:47:37;6.70;71.20
51801;DHT22;37855;53.204;6.568;2023-02-01T16:50:04;6.70;71.30
51801;DHT22;37855;53.204;6.568;2023-02-01T16:52:29;6.60;71.10
51801;DHT22;37855;53.204;6.568;2023-02-01T16:54:55;6.60;70.90
51801;DHT22;37855;53.204;6.568;2023-02-01T16:57:21;6.60;71.00
51801;DHT22;37855;53.204;6.568;2023-02-01T16:59:49;6.60;70.90
51801;DHT22;37855;53.204;6.568;2023-02-01T17:02:19;6.50;70.90
51801;DHT22;37855;53.204;6.568;2023-02-01T17:04:48;6.50;70.90
51801;DHT22;37855;53.204;6.568;2023-02-01T17:07:18;6.50;71.00
51801;DHT22;37855;53.204;6.568;2023-02-01T17:09:49;6.50;70.90
51801;DHT22;37855;53.204;6.568;2023-02-01T17:12:22;6.50;71.10
51801;DHT22;37855;53.204;6.568;2023-02-01T17:14:48;6.50;71.20
51801;DHT22;37855;53.204;6.568;2023-02-01T17:17:31;6.50;71.30
51801;DHT22;37855;53.204;6.568;2023-02-01T17:19:58;6.50;71.30
51801;DHT22;37855;53.204;6.568;2023-02-01T17:22:24;6.50;71.60
51801;DHT22;37855;53.204;6.568;2023-02-01T17:24:50;6.50;71.60
51801;DHT22;37855;53.204;6.568;2023-02-01T17:27:18;6.50;71.80
51801;DHT22;37855;53.204;6.568;2023-02-01T17:29:45;6.50;71.90
51801;DHT22;37855;53.204;6.568;2023-02-01T17:32:27;6.60;71.90
51801;DHT22;37855;53.204;6.568;2023-02-01T17:34:55;6.50;71.80
51801;DHT22;37855;53.204;6.568;2023-02-01T17:37:30;6.50;71.70
51801;DHT22;37855;53.204;6.568;2023-02-01T17:39:56;6.50;71.40
51801;DHT22;37855;53.204;6.568;2023-02-01T17:42:25;6.40;71.10
51801;DHT22;37855;53.204;6.568;2023-02-01T17:44:57;6.50;70.40
51801;DHT22;37855;53.204;6.568;2023-02-01T17:47:28;6.50;70.10
51801;DHT22;37855;53.204;6.568;2023-02-01T17:49:54;6.50;69.60
51801;DHT22;37855;53.204;6.568;2023-02-01T17:52:24;6.50;69.30
51801;DHT22;37855;53.204;6.568;2023-02-01T17:54:51;6.50;69.30
51801;DHT22;37855;53.204;6.568;2023-02-01T17:57:27;6.40;69.30
51801;DHT22;37855;53.204;6.568;2023-02-01T18:00:15;6.40;68.80
51801;DHT22;37855;53.204;6.568;2023-02-01T18:02:58;6.50;68.60
51801;DHT22;37855;53.204;6.568;2023-02-01T18:05:37;6.40;68.10
51801;DHT22;37855;53.204;6.568;2023-02-01T18:08:13;6.40;68.20
51801;DHT22;37855;53.204;6.568;2023-02-01T18:10:44;6.40;68.30
51801;DHT22;37855;53.204;6.568;2023-02-01T18:13:11;6.40;68.20
51801;DHT22;37855;53.204;6.568;2023-02-01T18:15:38;6.40;67.80
51801;DHT22;37855;53.204;6.568;2023-02-01T18:18:05;6.40;68.20
51801;DHT22;37855;53.204;6.568;2023-02-01T18:20:35;6.40;68.10
51801;DHT22;37855;53.204;6.568;2023-02-01T18:23:04;6.40;68.00
51801;DHT22;37855;53.204;6.568;2023-02-01T18:25:33;6.40;68.00
51801;DHT22;37855;53.204;6.568;2023-02-01T18:28:02;6.40;68.00
51801;DHT22;37855;53.204;6.568;2023-02-01T18:30:30;6.40;68.10
51801;DHT22;37855;53.204;6.568;2023-02-01T18:32:59;6.50;68.30
51801;DHT22;37855;53.204;6.568;2023-02-01T18:35:30;6.50;68.60
51801;DHT22;37855;53.204;6.568;2023-02-01T18:37:59;6.40;69.00
51801;DHT22;37855;53.204;6.568;2023-02-01T18:40:31;6.40;69.20
51801;DHT22;37855;53.204;6.568;2023-02-01T18:42:59;6.40;69.60
51801;DHT22;37855;53.204;6.568;2023-02-01T18:45:35;6.40;70.00
51801;DHT22;37855;53.204;6.568;2023-02-01T18:48:03;6.40;70.40
51801;DHT22;37855;53.204;6.568;2023-02-01T18:50:43;6.40;70.50
51801;DHT22;37855;53.204;6.568;2023-02-01T18:53:15;6.40;70.60
51801;DHT22;37855;53.204;6.568;2023-02-01T18:55:41;6.40;70.90
51801;DHT22;37855;53.204;6.568;2023-02-01T18:58:07;6.30;70.90
51801;DHT22;37855;53.204;6.568;2023-02-01T19:00:40;6.30;70.90
51801;DHT22;37855;53.204;6.568;2023-02-01T19:03:06;6.40;70.80
51801;DHT22;37855;53.204;6.568;2023-02-01T19:05:31;6.30;70.80
51801;DHT22;37855;53.204;6.568;2023-02-01T19:08:15;6.30;70.90
51801;DHT22;37855;53.204;6.568;2023-02-01T19:10:41;6.30;70.60
51801;DHT22;37855;53.204;6.568;2023-02-01T19:13:12;6.30;70.60
51801;DHT22;37855;53.204;6.568;2023-02-01T19:15:39;6.30;70.70
51801;DHT22;37855;53.204;6.568;2023-02-01T19:18:06;6.30;70.70
51801;DHT22;37855;53.204;6.568;2023-02-01T19:20:48;6.30;70.80